createdAt,value
2022-09-02T00:00:42.750Z,17.7
2022-09-02T00:01:44.633Z,17.7
2022-09-02T00:02:42.943Z,17.5
2022-09-02T00:03:44.887Z,17.4
2022-09-02T00:04:42.957Z,17.5
2022-09-02T00:05:45.760Z,17.5
2022-09-02T00:06:43.048Z,17.5
2022-09-02T00:07:44.736Z,17.5
2022-09-02T00:08:43.097Z,17.5
2022-09-02T00:09:43.141Z,17.7
2022-09-02T00:10:43.137Z,17.6
2022-09-02T00:11:43.162Z,17.6
2022-09-02T00:12:43.237Z,17.6
2022-09-02T00:13:43.263Z,17.5
2022-09-02T00:14:43.361Z,17.5
2022-09-02T00:15:43.329Z,17.5
2022-09-02T00:16:43.394Z,17.4
2022-09-02T00:17:43.402Z,17.4
2022-09-02T00:18:44.904Z,17.3
2022-09-02T00:19:43.462Z,17.4
2022-09-02T00:20:43.655Z,17.4
2022-09-02T00:21:43.520Z,17.3
2022-09-02T00:22:43.544Z,17.3
2022-09-02T00:23:43.703Z,17.4
2022-09-02T00:24:43.652Z,17.6
2022-09-02T00:25:43.691Z,17.7
2022-09-02T00:26:43.794Z,17.5
2022-09-02T00:27:43.728Z,17.3
2022-09-02T00:28:49.169Z,17.4
2022-09-02T00:29:44.089Z,17.5
2022-09-02T00:30:43.788Z,17.3
2022-09-02T00:31:43.938Z,17.3
2022-09-02T00:32:43.878Z,17.5
2022-09-02T00:33:43.895Z,17.4
2022-09-02T00:34:43.914Z,17.2
2022-09-02T00:35:43.966Z,17.3
2022-09-02T00:36:44.241Z,17.2
2022-09-02T00:37:51.463Z,17.1
2022-09-02T00:38:44.058Z,17.2
2022-09-02T00:39:44.205Z,17.2
2022-09-02T00:40:44.201Z,17.2
2022-09-02T00:41:44.132Z,17.2
2022-09-02T00:42:44.240Z,17
2022-09-02T00:43:44.357Z,17.1
2022-09-02T00:44:44.464Z,17
2022-09-02T00:45:44.272Z,17.1
2022-09-02T00:46:44.326Z,17.1
2022-09-02T00:47:46.116Z,17.2
2022-09-02T00:48:44.382Z,17.3
2022-09-02T00:49:44.380Z,17.3
2022-09-02T00:50:44.409Z,17.3
2022-09-02T00:51:44.483Z,17.1
2022-09-02T00:52:44.483Z,17
2022-09-02T00:53:44.530Z,17.2
2022-09-02T00:54:44.867Z,17.3
2022-09-02T00:55:44.573Z,17.2
2022-09-02T00:56:44.590Z,17.2
2022-09-02T00:57:44.658Z,17.2
2022-09-02T00:58:44.994Z,17.2
2022-09-02T00:59:45.076Z,17.2
2022-09-02T01:00:45.201Z,17.1
2022-09-02T01:01:45.073Z,17.1
2022-09-02T01:02:45.040Z,17.2
2022-09-02T01:03:45.169Z,17.2
2022-09-02T01:04:45.146Z,17.1
2022-09-02T01:05:45.220Z,17.1
2022-09-02T01:06:45.270Z,17.1
2022-09-02T01:07:45.304Z,17.1
2022-09-02T01:08:45.390Z,17.1
2022-09-02T01:09:45.437Z,17
2022-09-02T01:10:45.816Z,17.1
2022-09-02T01:11:45.555Z,17.1
2022-09-02T01:12:45.678Z,17
2022-09-02T01:13:45.646Z,17.1
2022-09-02T01:14:45.777Z,17.1
2022-09-02T01:15:45.971Z,16.9
2022-09-02T01:16:45.849Z,16.9
2022-09-02T01:17:45.808Z,16.8
2022-09-02T01:18:45.905Z,16.9
2022-09-02T01:19:46.125Z,17
2022-09-02T01:20:45.935Z,17
2022-09-02T01:21:45.981Z,17
2022-09-02T01:22:46.016Z,17
2022-09-02T01:23:46.319Z,16.9
2022-09-02T01:24:46.104Z,16.9
2022-09-02T01:25:46.528Z,16.9
2022-09-02T01:26:46.104Z,16.9
2022-09-02T01:27:46.143Z,17
2022-09-02T01:28:46.438Z,17.2
2022-09-02T01:29:46.342Z,17.2
2022-09-02T01:30:46.279Z,17.3
2022-09-02T01:31:46.681Z,17.2
2022-09-02T01:32:46.313Z,17
2022-09-02T01:33:46.358Z,17
2022-09-02T01:34:46.391Z,17
2022-09-02T01:35:46.428Z,16.8
2022-09-02T01:36:46.480Z,16.8
2022-09-02T01:37:55.692Z,16.8
2022-09-02T01:38:46.736Z,16.8
2022-09-02T01:39:46.554Z,16.8
2022-09-02T01:40:46.643Z,16.9
2022-09-02T01:41:46.609Z,16.9
2022-09-02T01:42:46.656Z,16.9
2022-09-02T01:43:46.690Z,16.9
2022-09-02T01:44:47.131Z,17
2022-09-02T01:45:46.822Z,16.8
2022-09-02T01:46:46.865Z,16.8
2022-09-02T01:47:48.091Z,16.8
2022-09-02T01:48:46.885Z,16.8
2022-09-02T01:49:46.878Z,16.8
2022-09-02T01:50:47.116Z,16.8
2022-09-02T01:51:47.134Z,16.7
2022-09-02T01:52:47.151Z,16.6
2022-09-02T01:53:47.170Z,16.7
2022-09-02T01:54:47.171Z,16.8
2022-09-02T01:55:47.163Z,16.7
2022-09-02T01:56:47.304Z,16.8
2022-09-02T01:57:47.300Z,16.9
2022-09-02T01:58:47.439Z,16.8
2022-09-02T01:59:47.546Z,16.8
2022-09-02T02:00:47.643Z,16.9
2022-09-02T02:01:47.627Z,16.8
2022-09-02T02:02:47.747Z,16.7
2022-09-02T02:03:47.751Z,16.8
2022-09-02T02:04:47.854Z,16.7
2022-09-02T02:05:47.602Z,16.9
2022-09-02T02:06:47.913Z,16.8
2022-09-02T02:07:51.256Z,16.7
2022-09-02T02:08:47.621Z,16.6
2022-09-02T02:09:47.816Z,16.6
2022-09-02T02:10:47.815Z,16.5
2022-09-02T02:11:48.072Z,16.5
2022-09-02T02:12:47.844Z,16.6
2022-09-02T02:13:47.922Z,16.7
2022-09-02T02:14:47.980Z,16.6
2022-09-02T02:15:48.431Z,16.7
2022-09-02T02:16:48.128Z,16.6
2022-09-02T02:17:48.220Z,16.6
2022-09-02T02:18:48.298Z,16.5
2022-09-02T02:19:48.336Z,16.6
2022-09-02T02:20:48.363Z,16.6
2022-09-02T02:21:48.450Z,16.5
2022-09-02T02:22:48.507Z,16.6
2022-09-02T02:23:48.602Z,16.6
2022-09-02T02:24:48.644Z,16.5
2022-09-02T02:25:48.800Z,16.6
2022-09-02T02:26:48.758Z,16.5
2022-09-02T02:27:48.777Z,16.6
2022-09-02T02:28:48.848Z,16.7
2022-09-02T02:29:48.865Z,16.6
2022-09-02T02:30:49.156Z,16.4
2022-09-02T02:31:49.007Z,16.6
2022-09-02T02:32:49.040Z,16.6
2022-09-02T02:33:48.992Z,16.5
2022-09-02T02:34:49.043Z,16.4
2022-09-02T02:35:49.126Z,16.5
2022-09-02T02:36:49.092Z,16.4
2022-09-02T02:37:49.137Z,16.3
2022-09-02T02:38:49.159Z,16.4
2022-09-02T02:39:49.232Z,16.5
2022-09-02T02:40:49.264Z,16.3
2022-09-02T02:41:49.246Z,16.3
2022-09-02T02:42:49.292Z,16.3
2022-09-02T02:43:49.312Z,16.3
2022-09-02T02:44:49.369Z,16.3
2022-09-02T02:45:49.345Z,16.3
2022-09-02T02:46:49.798Z,16.3
2022-09-02T02:47:49.424Z,16.3
2022-09-02T02:48:49.482Z,16.3
2022-09-02T02:49:49.528Z,16.3
2022-09-02T02:50:49.531Z,16.3
2022-09-02T02:51:49.627Z,16.3
2022-09-02T02:52:53.362Z,16.3
2022-09-02T02:53:49.731Z,16.4
2022-09-02T02:54:49.700Z,16.4
2022-09-02T02:55:49.954Z,16.3
2022-09-02T02:56:49.743Z,16.3
2022-09-02T02:57:49.922Z,16.3
2022-09-02T02:58:49.780Z,16.3
2022-09-02T02:59:49.940Z,16.4
2022-09-02T03:00:50.047Z,16.4
2022-09-02T03:01:49.982Z,16.3
2022-09-02T03:02:50.117Z,16.3
2022-09-02T03:03:50.157Z,16.2
2022-09-02T03:04:49.998Z,16.3
2022-09-02T03:05:50.017Z,16.4
2022-09-02T03:06:50.075Z,16.5
2022-09-02T03:07:50.146Z,16.5
2022-09-02T03:08:51.071Z,16.4
2022-09-02T03:09:50.235Z,16.4
2022-09-02T03:10:50.254Z,16.4
2022-09-02T03:11:50.199Z,16.4
2022-09-02T03:12:50.279Z,16.3
2022-09-02T03:13:50.311Z,16.2
2022-09-02T03:14:50.649Z,16.2
2022-09-02T03:15:50.405Z,16.3
2022-09-02T03:16:50.390Z,16.3
2022-09-02T03:17:50.755Z,16.2
2022-09-02T03:18:50.472Z,16.2
2022-09-02T03:19:50.536Z,16.2
2022-09-02T03:20:50.589Z,16.1
2022-09-02T03:21:50.829Z,16
2022-09-02T03:22:50.709Z,16
2022-09-02T03:23:51.124Z,16
2022-09-02T03:24:50.884Z,16
2022-09-02T03:25:51.042Z,16
2022-09-02T03:26:51.136Z,16.2
2022-09-02T03:27:51.094Z,16.2
2022-09-02T03:28:51.293Z,16.3
2022-09-02T03:29:51.226Z,16.3
2022-09-02T03:30:51.264Z,16.2
2022-09-02T03:31:51.296Z,16.1
2022-09-02T03:32:51.416Z,16
2022-09-02T03:35:05.078Z,16.2
2022-09-02T03:35:51.870Z,16.1
2022-09-02T03:36:51.693Z,16.1
2022-09-02T03:37:51.862Z,16
2022-09-02T03:38:52.015Z,16
2022-09-02T03:39:51.719Z,16.1
2022-09-02T03:40:51.803Z,16.2
2022-09-02T03:41:51.799Z,16.2
2022-09-02T03:42:52.248Z,16
2022-09-02T03:43:51.848Z,16
2022-09-02T03:44:51.948Z,16
2022-09-02T03:45:52.050Z,16
2022-09-02T03:46:52.183Z,16
2022-09-02T03:47:52.051Z,16
2022-09-02T03:48:52.329Z,16
2022-09-02T03:49:52.139Z,16
2022-09-02T03:50:52.174Z,16
2022-09-02T03:51:52.216Z,16.1
2022-09-02T03:52:52.218Z,16.1
2022-09-02T03:53:52.233Z,16.1
2022-09-02T03:54:52.303Z,16.1
2022-09-02T03:55:52.389Z,16
2022-09-02T03:56:56.110Z,16
2022-09-02T03:57:52.418Z,16.1
2022-09-02T03:58:52.436Z,16.2
2022-09-02T03:59:52.484Z,16.1
2022-09-02T04:00:52.640Z,16.1
2022-09-02T04:01:52.609Z,16.1
2022-09-02T04:02:52.635Z,16.2
2022-09-02T04:03:52.612Z,16.2
2022-09-02T04:04:52.626Z,16.2
2022-09-02T04:05:52.765Z,16.1
2022-09-02T04:06:52.703Z,16.1
2022-09-02T04:07:52.747Z,16.1
2022-09-02T04:08:52.804Z,16
2022-09-02T04:09:52.830Z,16
2022-09-02T04:10:52.849Z,16
2022-09-02T04:11:52.883Z,16.1
2022-09-02T04:12:52.922Z,16.1
2022-09-02T04:13:53.011Z,16
2022-09-02T04:14:52.942Z,16
2022-09-02T04:15:53.218Z,16.2
2022-09-02T04:16:52.995Z,16.2
2022-09-02T04:17:53.143Z,16.1
2022-09-02T04:18:53.077Z,16.1
2022-09-02T04:19:53.273Z,16.1
2022-09-02T04:20:53.150Z,16
2022-09-02T04:21:53.208Z,16.1
2022-09-02T04:22:53.203Z,16.1
2022-09-02T04:23:53.249Z,16
2022-09-02T04:24:53.275Z,15.9
2022-09-02T04:25:53.331Z,15.9
2022-09-02T04:26:53.355Z,16
2022-09-02T04:27:53.380Z,16.1
2022-09-02T04:28:53.556Z,16.1
2022-09-02T04:29:53.473Z,16
2022-09-02T04:31:26.578Z,16.2
2022-09-02T04:31:53.883Z,16.2
2022-09-02T04:32:53.599Z,16.2
2022-09-02T04:33:55.344Z,16.1
2022-09-02T04:34:53.868Z,16.1
2022-09-02T04:35:53.838Z,16.2
2022-09-02T04:36:54.138Z,16.2
2022-09-02T04:37:53.931Z,16.3
2022-09-02T04:38:54.015Z,16.1
2022-09-02T04:39:54.252Z,16.1
2022-09-02T04:40:54.279Z,16.1
2022-09-02T04:41:54.212Z,16.2
2022-09-02T04:42:55.209Z,16.3
2022-09-02T04:43:54.613Z,16.3
2022-09-02T04:44:54.386Z,16.2
2022-09-02T04:45:54.520Z,16.2
2022-09-02T04:46:54.515Z,16.2
2022-09-02T04:47:54.577Z,16.2
2022-09-02T04:48:54.617Z,16.3
2022-09-02T04:49:54.665Z,16.2
2022-09-02T04:50:54.693Z,16.1
2022-09-02T04:51:54.712Z,16.1
2022-09-02T04:52:54.933Z,16.2
2022-09-02T04:53:56.394Z,16.2
2022-09-02T04:54:54.814Z,16.3
2022-09-02T04:55:58.012Z,16.2
2022-09-02T04:56:54.872Z,16.3
2022-09-02T04:57:54.969Z,16.2
2022-09-02T04:58:54.989Z,16.3
2022-09-02T04:59:54.981Z,16.3
2022-09-02T05:00:54.986Z,16.1
2022-09-02T05:01:55.319Z,16
2022-09-02T05:02:55.226Z,16
2022-09-02T05:03:55.238Z,16.1
2022-09-02T05:04:55.091Z,16
2022-09-02T05:05:55.123Z,16
2022-09-02T05:06:55.176Z,16
2022-09-02T05:07:55.210Z,15.9
2022-09-02T05:08:55.220Z,16
2022-09-02T05:09:55.272Z,16
2022-09-02T05:10:55.388Z,16
2022-09-02T05:11:55.670Z,16.1
2022-09-02T05:12:55.682Z,16.1
2022-09-02T05:13:55.365Z,16.1
2022-09-02T05:14:55.402Z,16
2022-09-02T05:15:55.556Z,16
2022-09-02T05:16:55.721Z,16
2022-09-02T05:17:55.490Z,16
2022-09-02T05:18:55.564Z,16.1
2022-09-02T05:19:55.589Z,16.1
2022-09-02T05:20:55.584Z,16.3
2022-09-02T05:21:55.650Z,16.3
2022-09-02T05:22:55.682Z,16.1
2022-09-02T05:23:55.670Z,16.1
2022-09-02T05:24:55.730Z,16.2
2022-09-02T05:25:55.761Z,16.3
2022-09-02T05:26:55.765Z,16.1
2022-09-02T05:27:55.807Z,16
2022-09-02T05:28:55.818Z,16.1
2022-09-02T05:29:55.842Z,16.2
2022-09-02T05:30:55.914Z,16.2
2022-09-02T05:31:55.976Z,16.1
2022-09-02T05:32:56.089Z,16.1
2022-09-02T05:33:55.950Z,16.1
2022-09-02T05:34:55.985Z,16.3
2022-09-02T05:35:56.024Z,16.3
2022-09-02T05:36:56.056Z,16.3
2022-09-02T05:38:00.158Z,16.3
2022-09-02T05:38:56.062Z,16.3
2022-09-02T05:39:56.138Z,16.3
2022-09-02T05:40:56.266Z,16.2
2022-09-02T05:41:56.508Z,16.3
2022-09-02T05:42:56.221Z,16.1
2022-09-02T05:43:56.229Z,16.2
2022-09-02T05:44:56.307Z,16.1
2022-09-02T05:45:56.749Z,16.1
2022-09-02T05:46:56.785Z,16.3
2022-09-02T05:47:56.547Z,16.3
2022-09-02T05:48:57.021Z,16.3
2022-09-02T05:49:56.962Z,16.3
2022-09-02T05:50:57.760Z,16.3
2022-09-02T05:51:56.853Z,16.3
2022-09-02T05:52:56.904Z,16.4
2022-09-02T05:53:56.988Z,16.4
2022-09-02T05:54:56.997Z,16.3
2022-09-02T05:55:57.182Z,16.3
2022-09-02T05:56:57.088Z,16.3
2022-09-02T05:57:57.403Z,16.3
2022-09-02T05:58:57.394Z,16.2
2022-09-02T05:59:57.297Z,16.2
2022-09-02T06:00:57.428Z,16.2
2022-09-02T06:01:57.705Z,16.3
2022-09-02T06:02:57.614Z,16.3
2022-09-02T06:03:57.384Z,16.5
2022-09-02T06:04:57.629Z,16.4
2022-09-02T06:05:59.724Z,16.5
2022-09-02T06:06:57.949Z,16.5
2022-09-02T06:07:57.511Z,16.5
2022-09-02T06:08:57.556Z,16.6
2022-09-02T06:09:57.597Z,16.7
2022-09-02T06:10:57.647Z,16.7
2022-09-02T06:11:58.014Z,16.7
2022-09-02T06:12:57.704Z,16.6
2022-09-02T06:13:57.834Z,16.7
2022-09-02T06:14:57.992Z,16.6
2022-09-02T06:15:57.887Z,16.6
2022-09-02T06:16:57.993Z,16.5
2022-09-02T06:17:57.823Z,16.6
2022-09-02T06:18:58.089Z,16.6
2022-09-02T06:19:57.910Z,16.7
2022-09-02T06:20:58.106Z,16.6
2022-09-02T06:21:57.969Z,16.5
2022-09-02T06:22:58.105Z,16.5
2022-09-02T06:23:58.034Z,16.6
2022-09-02T06:24:58.057Z,16.8
2022-09-02T06:25:58.068Z,16.7
2022-09-02T06:26:58.088Z,16.7
2022-09-02T06:27:58.102Z,16.7
2022-09-02T06:28:58.163Z,16.7
2022-09-02T06:29:58.527Z,16.6
2022-09-02T06:30:58.276Z,16.6
2022-09-02T06:31:58.395Z,16.6
2022-09-02T06:32:58.253Z,16.6
2022-09-02T06:33:58.614Z,16.8
2022-09-02T06:34:58.643Z,16.8
2022-09-02T06:35:58.342Z,16.8
2022-09-02T06:36:58.739Z,16.9
2022-09-02T06:37:58.413Z,16.9
2022-09-02T06:38:58.719Z,16.9
2022-09-02T06:39:58.538Z,16.9
2022-09-02T06:40:58.493Z,16.9
2022-09-02T06:41:58.544Z,16.8
2022-09-02T06:42:58.546Z,17
2022-09-02T06:43:58.596Z,16.9
2022-09-02T06:44:58.620Z,16.9
2022-09-02T06:45:58.828Z,16.9
2022-09-02T06:46:58.730Z,17
2022-09-02T06:47:58.710Z,17
2022-09-02T06:48:58.950Z,17
2022-09-02T06:49:58.782Z,17
2022-09-02T06:50:59.113Z,17
2022-09-02T06:51:58.977Z,17.1
2022-09-02T06:52:58.955Z,17.1
2022-09-02T06:53:59.101Z,17.1
2022-09-02T06:54:59.169Z,17
2022-09-02T06:55:59.073Z,17.1
2022-09-02T06:56:59.103Z,17.2
2022-09-02T06:57:59.152Z,17.1
2022-09-02T06:58:59.199Z,17
2022-09-02T07:00:02.363Z,17.1
2022-09-02T07:00:59.548Z,17.2
2022-09-02T07:01:59.545Z,17.3
2022-09-02T07:02:59.750Z,17.3
2022-09-02T07:03:59.560Z,17.3
2022-09-02T07:04:59.632Z,17.2
2022-09-02T07:05:59.938Z,17.2
2022-09-02T07:06:59.795Z,17.2
2022-09-02T07:07:59.883Z,17.3
2022-09-02T07:09:00.107Z,17.3
2022-09-02T07:09:59.953Z,17.3
2022-09-02T07:11:00.033Z,17.3
2022-09-02T07:12:04.140Z,17.3
2022-09-02T07:13:00.256Z,17.2
2022-09-02T07:14:00.241Z,17.3
2022-09-02T07:15:00.255Z,17.3
2022-09-02T07:16:00.274Z,17.3
2022-09-02T07:17:00.482Z,17.4
2022-09-02T07:18:00.349Z,17.4
2022-09-02T07:19:00.358Z,17.5
2022-09-02T07:20:00.678Z,17.5
2022-09-02T07:21:00.430Z,17.5
2022-09-02T07:22:00.620Z,17.4
2022-09-02T07:23:00.549Z,17.5
2022-09-02T07:24:00.535Z,17.5
2022-09-02T07:25:00.608Z,17.4
2022-09-02T07:26:00.583Z,17.4
2022-09-02T07:27:00.644Z,17.4
2022-09-02T07:28:00.648Z,17.6
2022-09-02T07:29:01.029Z,17.8
2022-09-02T07:30:00.742Z,17.9
2022-09-02T07:31:00.813Z,18.2
2022-09-02T07:32:01.053Z,18.4
2022-09-02T07:33:00.786Z,18.5
2022-09-02T07:34:00.896Z,18.6
2022-09-02T07:35:00.877Z,18.7
2022-09-02T07:36:00.968Z,18.8
2022-09-02T07:37:04.249Z,18.9
2022-09-02T07:38:00.982Z,19
2022-09-02T07:39:01.010Z,19.1
2022-09-02T07:40:01.072Z,19.1
2022-09-02T07:41:01.106Z,19.1
2022-09-02T07:42:01.134Z,19.1
2022-09-02T07:43:01.164Z,19.1
2022-09-02T07:44:01.190Z,19
2022-09-02T07:45:01.237Z,19
2022-09-02T07:46:01.332Z,18.9
2022-09-02T07:47:01.312Z,18.7
2022-09-02T07:48:01.376Z,18.5
2022-09-02T07:49:01.368Z,18.5
2022-09-02T07:50:19.457Z,18.6
2022-09-02T07:51:01.427Z,18.6
2022-09-02T07:52:01.542Z,18.6
2022-09-02T07:53:01.533Z,18.5
2022-09-02T07:54:01.492Z,18.6
2022-09-02T07:55:01.587Z,18.5
2022-09-02T07:56:01.664Z,18.5
2022-09-02T07:57:02.115Z,18.7
2022-09-02T07:58:01.682Z,18.9
2022-09-02T07:59:01.706Z,18.8
2022-09-02T08:00:01.818Z,18.7
2022-09-02T08:01:01.876Z,18.7
2022-09-02T08:02:01.997Z,18.7
2022-09-02T08:03:01.950Z,18.7
2022-09-02T08:04:04.094Z,18.7
2022-09-02T08:05:01.906Z,18.7
2022-09-02T08:06:01.964Z,18.8
2022-09-02T08:07:03.345Z,18.9
2022-09-02T08:08:09.565Z,19
2022-09-02T08:09:02.149Z,19.2
2022-09-02T08:10:02.235Z,19.3
2022-09-02T08:12:06.011Z,19.6
2022-09-02T08:13:02.756Z,19.6
2022-09-02T08:14:09.254Z,19.7
2022-09-02T08:15:02.757Z,20
2022-09-02T08:16:02.594Z,20
2022-09-02T08:17:02.656Z,20.1
2022-09-02T08:18:02.825Z,20.1
2022-09-02T08:19:02.729Z,20.4
2022-09-02T08:20:03.881Z,20.6
2022-09-02T08:21:02.809Z,20.5
2022-09-02T08:22:13.141Z,20.4
2022-09-02T08:23:10.578Z,20.5
2022-09-02T08:24:10.091Z,20.6
2022-09-02T08:25:03.097Z,20.6
2022-09-02T08:26:12.293Z,20.5
2022-09-02T08:27:03.166Z,20.6
2022-09-02T08:28:10.879Z,20.5
2022-09-02T08:29:03.313Z,20.5
2022-09-02T08:30:11.218Z,20.3
2022-09-02T08:31:03.243Z,20.2
2022-09-02T08:32:49.311Z,20.3
2022-09-02T08:33:03.335Z,20.4
2022-09-02T08:34:17.193Z,20.3
2022-09-02T08:35:03.673Z,20.4
2022-09-02T08:36:18.447Z,20.4
2022-09-02T08:37:03.503Z,20.4
2022-09-02T08:38:14.532Z,20.3
2022-09-02T08:39:03.886Z,20.5
2022-09-02T08:40:21.062Z,20.4
2022-09-02T08:41:03.654Z,20.3
2022-09-02T08:42:21.492Z,20.5
2022-09-02T08:43:03.663Z,20.6
2022-09-02T08:44:05.115Z,20.8
2022-09-02T08:45:03.824Z,20.8
2022-09-02T08:46:04.195Z,21
2022-09-02T08:47:10.489Z,21
2022-09-02T08:48:04.136Z,21
2022-09-02T08:49:04.036Z,21
2022-09-02T08:50:11.275Z,21.1
2022-09-02T08:51:03.962Z,21.2
2022-09-02T08:52:04.014Z,21.2
2022-09-02T08:53:08.171Z,21.2
2022-09-02T08:54:04.107Z,21.2
2022-09-02T08:55:04.125Z,21.3
2022-09-02T08:56:06.591Z,21.3
2022-09-02T08:57:04.216Z,21.3
2022-09-02T08:59:16.483Z,21.4
2022-09-02T09:00:04.307Z,21.3
2022-09-02T09:01:04.373Z,21.4
2022-09-02T09:02:33.791Z,21.5
2022-09-02T09:03:04.413Z,21.4
2022-09-02T09:04:04.438Z,21.5
2022-09-02T09:05:25.804Z,21.7
2022-09-02T09:06:04.516Z,21.9
2022-09-02T09:07:04.532Z,21.8
2022-09-02T09:08:30.168Z,21.9
2022-09-02T09:09:09.655Z,21.9
2022-09-02T09:10:04.765Z,22
2022-09-02T09:11:05.037Z,22.1
2022-09-02T09:12:27.263Z,22.2
2022-09-02T09:13:04.829Z,22.1
2022-09-02T09:14:04.806Z,22.1
2022-09-02T09:15:27.846Z,22.1
2022-09-02T09:16:15.677Z,22.1
2022-09-02T09:17:05.329Z,22.1
2022-09-02T09:19:27.861Z,22.1
2022-09-02T09:20:05.082Z,22.2
2022-09-02T09:21:05.234Z,22.5
2022-09-02T09:22:05.298Z,22.4
2022-09-02T09:23:05.319Z,22.3
2022-09-02T09:24:05.383Z,22.3
2022-09-02T09:25:05.780Z,22.5
2022-09-02T09:26:05.474Z,22.5
2022-09-02T09:27:05.533Z,22.4
2022-09-02T09:28:05.610Z,22.5
2022-09-02T09:29:06.066Z,22.5
2022-09-02T09:30:14.954Z,22.5
2022-09-02T09:31:05.734Z,22.4
2022-09-02T09:32:05.754Z,22.2
2022-09-02T09:33:05.823Z,22.3
2022-09-02T09:34:05.855Z,22.6
2022-09-02T09:35:06.178Z,22.7
2022-09-02T09:36:09.114Z,22.7
2022-09-02T09:37:06.021Z,22.7
2022-09-02T09:38:06.060Z,22.9
2022-09-02T09:39:06.166Z,23
2022-09-02T09:40:06.149Z,22.9
2022-09-02T09:41:06.183Z,22.8
2022-09-02T09:42:06.234Z,22.9
2022-09-02T09:43:09.035Z,23.2
2022-09-02T09:44:06.233Z,23.2
2022-09-02T09:45:06.272Z,23
2022-09-02T09:46:06.419Z,23.1
2022-09-02T09:47:06.383Z,23.2
2022-09-02T09:48:06.372Z,23.3
2022-09-02T09:49:06.419Z,23.4
2022-09-02T09:50:06.427Z,23.3
2022-09-02T09:51:06.488Z,23.3
2022-09-02T09:52:06.518Z,23.2
2022-09-02T09:53:06.583Z,23.2
2022-09-02T09:54:06.596Z,23.1
2022-09-02T09:55:12.473Z,23.1
2022-09-02T09:56:06.633Z,23.1
2022-09-02T09:57:06.793Z,23.3
2022-09-02T09:58:06.771Z,23.4
2022-09-02T09:59:06.730Z,23.6
2022-09-02T10:00:06.811Z,23.3
2022-09-02T10:01:07.196Z,23
2022-09-02T10:02:06.902Z,23
2022-09-02T10:03:06.956Z,23.2
2022-09-02T10:04:16.190Z,23.3
2022-09-02T10:05:07.198Z,23.5
2022-09-02T10:06:06.963Z,23.5
2022-09-02T10:07:07.345Z,23.6
2022-09-02T10:08:08.322Z,23.8
2022-09-02T10:09:07.268Z,23.9
2022-09-02T10:10:07.168Z,23.8
2022-09-02T10:11:07.094Z,23.8
2022-09-02T10:12:07.156Z,23.9
2022-09-02T10:13:07.285Z,24
2022-09-02T10:14:07.400Z,24
2022-09-02T10:15:07.230Z,23.8
2022-09-02T10:16:07.390Z,23.8
2022-09-02T10:17:07.336Z,23.9
2022-09-02T10:18:07.339Z,23.8
2022-09-02T10:19:07.746Z,23.8
2022-09-02T10:20:07.439Z,23.8
2022-09-02T10:21:14.898Z,23.7
2022-09-02T10:22:07.505Z,23.3
2022-09-02T10:23:07.521Z,23.7
2022-09-02T10:24:07.533Z,24
2022-09-02T10:25:07.595Z,24.2
2022-09-02T10:26:07.608Z,24.3
2022-09-02T10:27:17.691Z,24.5
2022-09-02T10:28:07.672Z,24.6
2022-09-02T10:29:07.764Z,24.6
2022-09-02T10:30:08.015Z,24.2
2022-09-02T10:31:07.912Z,23.8
2022-09-02T10:32:08.029Z,23.5
2022-09-02T10:33:08.103Z,23.1
2022-09-02T10:34:18.809Z,22.9
2022-09-02T10:35:08.282Z,22.8
2022-09-02T10:36:08.222Z,23.2
2022-09-02T10:37:08.278Z,23.6
2022-09-02T10:38:08.369Z,24
2022-09-02T10:39:08.380Z,24.1
2022-09-02T10:40:08.696Z,24.4
2022-09-02T10:41:08.610Z,24.6
2022-09-02T10:42:09.153Z,24.5
2022-09-02T10:43:08.660Z,24.7
2022-09-02T10:44:08.721Z,24.9
2022-09-02T10:45:08.720Z,24.8
2022-09-02T10:46:09.073Z,24.9
2022-09-02T10:47:09.151Z,25.1
2022-09-02T10:48:08.919Z,25.3
2022-09-02T10:49:08.913Z,25.5
2022-09-02T10:50:08.957Z,25.4
2022-09-02T10:51:08.987Z,25.4
2022-09-02T10:52:09.075Z,25.2
2022-09-02T10:53:09.532Z,25.1
2022-09-02T10:54:09.237Z,25
2022-09-02T10:55:09.118Z,25
2022-09-02T10:56:09.171Z,25.1
2022-09-02T10:57:09.170Z,24.8
2022-09-02T10:58:09.237Z,24.8
2022-09-02T10:59:09.260Z,24.9
2022-09-02T11:00:09.316Z,24.7
2022-09-02T11:01:09.418Z,24.5
2022-09-02T11:02:09.353Z,24.7
2022-09-02T11:03:09.475Z,25
2022-09-02T11:04:09.412Z,25
2022-09-02T11:05:09.651Z,24.8
2022-09-02T11:06:09.778Z,24.6
2022-09-02T11:07:09.500Z,24.4
2022-09-02T11:08:09.536Z,24.5
2022-09-02T11:09:09.565Z,24.5
2022-09-02T11:10:09.706Z,24.5
2022-09-02T11:11:09.724Z,24.5
2022-09-02T11:12:09.753Z,24.3
2022-09-02T11:13:09.728Z,24.1
2022-09-02T11:14:09.733Z,24.1
2022-09-02T11:15:09.752Z,24.2
2022-09-02T11:16:09.963Z,24.5
2022-09-02T11:17:12.855Z,24.7
2022-09-02T11:18:09.941Z,24.9
2022-09-02T11:19:10.028Z,25
2022-09-02T11:20:10.237Z,25.2
2022-09-02T11:21:09.955Z,25.4
2022-09-02T11:22:09.994Z,25.4
2022-09-02T11:23:10.061Z,25.2
2022-09-02T11:24:10.045Z,25.2
2022-09-02T11:25:10.097Z,25
2022-09-02T11:26:10.092Z,25.2
2022-09-02T11:27:25.718Z,25.3
2022-09-02T11:28:10.232Z,25.5
2022-09-02T11:29:10.220Z,25.4
2022-09-02T11:30:10.244Z,25.5
2022-09-02T11:31:10.284Z,25.6
2022-09-02T11:32:10.314Z,25.6
2022-09-02T11:33:10.336Z,25.3
2022-09-02T11:34:10.365Z,25
2022-09-02T11:35:10.458Z,24.8
2022-09-02T11:36:10.565Z,25.1
2022-09-02T11:37:10.685Z,25.4
2022-09-02T11:38:10.511Z,25.5
2022-09-02T11:39:10.546Z,25.8
2022-09-02T11:40:23.743Z,26
2022-09-02T11:41:37.850Z,25.6
2022-09-02T11:42:10.704Z,25.3
2022-09-02T11:43:10.754Z,25.2
2022-09-02T11:44:10.822Z,25.4
2022-09-02T11:45:10.938Z,25.5
2022-09-02T11:46:10.984Z,25.3
2022-09-02T11:47:10.975Z,25.4
2022-09-02T11:48:11.063Z,25.6
2022-09-02T11:49:11.101Z,25.4
2022-09-02T11:50:11.204Z,25.5
2022-09-02T11:51:11.270Z,25.6
2022-09-02T11:52:11.334Z,25.6
2022-09-02T11:53:11.314Z,25.8
2022-09-02T11:54:11.665Z,25.7
2022-09-02T11:55:11.429Z,25.5
2022-09-02T11:56:11.903Z,25.2
2022-09-02T11:57:11.960Z,25.6
2022-09-02T11:58:11.677Z,25.8
2022-09-02T11:59:15.899Z,25.8
2022-09-02T12:00:12.300Z,25.8
2022-09-02T12:01:13.828Z,25.9
2022-09-02T12:02:13.165Z,25.9
2022-09-02T12:03:35.764Z,26
2022-09-02T12:05:12.176Z,26.1
2022-09-02T12:06:12.468Z,26.1
2022-09-02T12:07:12.330Z,26.2
2022-09-02T12:08:12.363Z,26.2
2022-09-02T12:09:12.434Z,26.1
2022-09-02T12:10:12.307Z,26
2022-09-02T12:11:12.689Z,25.8
2022-09-02T12:12:12.485Z,26.1
2022-09-02T12:13:17.620Z,26.2
2022-09-02T12:14:12.387Z,26.1
2022-09-02T12:15:12.396Z,26
2022-09-02T12:16:12.475Z,26.2
2022-09-02T12:17:12.507Z,26.5
2022-09-02T12:18:12.520Z,26.9
2022-09-02T12:19:14.009Z,27
2022-09-02T12:21:16.679Z,26.7
2022-09-02T12:22:12.677Z,26.5
2022-09-02T12:23:12.691Z,26.7
2022-09-02T12:24:12.703Z,26.8
2022-09-02T12:25:12.768Z,26.8
2022-09-02T12:26:15.828Z,26.7
2022-09-02T12:27:12.881Z,26.7
2022-09-02T12:28:12.972Z,26.8
2022-09-02T12:29:12.953Z,26.5
2022-09-02T12:30:12.946Z,26.2
2022-09-02T12:31:13.334Z,26.1
2022-09-02T12:32:13.014Z,26
2022-09-02T12:33:13.150Z,26.1
2022-09-02T12:34:13.021Z,26
2022-09-02T12:35:13.102Z,26.3
2022-09-02T12:36:13.118Z,26.3
2022-09-02T12:37:24.655Z,26.1
2022-09-02T12:38:13.269Z,26
2022-09-02T12:39:13.317Z,26
2022-09-02T12:40:13.447Z,26.5
2022-09-02T12:41:13.501Z,26.4
2022-09-02T12:42:13.329Z,26.4
2022-09-02T12:43:18.417Z,26.5
2022-09-02T12:44:13.439Z,26.6
2022-09-02T12:45:13.772Z,26.2
2022-09-02T12:46:18.548Z,26.3
2022-09-02T12:47:13.680Z,26.5
2022-09-02T12:48:16.429Z,26.6
2022-09-02T12:49:13.729Z,26.5
2022-09-02T12:50:13.642Z,26.4
2022-09-02T12:51:13.642Z,26.5
2022-09-02T12:52:13.708Z,26.7
2022-09-02T12:53:16.004Z,26.7
2022-09-02T12:54:13.898Z,26.2
2022-09-02T12:55:13.904Z,25.6
2022-09-02T12:56:13.956Z,25.3
2022-09-02T12:57:14.020Z,25.3
2022-09-02T12:58:14.168Z,25.2
2022-09-02T12:59:14.259Z,25.3
2022-09-02T13:00:14.337Z,25.7
2022-09-02T13:01:14.362Z,25.9
2022-09-02T13:02:14.397Z,26
2022-09-02T13:03:14.780Z,26.4
2022-09-02T13:04:14.611Z,26.5
2022-09-02T13:05:14.558Z,26.7
2022-09-02T13:06:14.679Z,26.8
2022-09-02T13:07:14.734Z,27
2022-09-02T13:08:14.767Z,26.7
2022-09-02T13:09:14.817Z,26.5
2022-09-02T13:10:14.950Z,26.5
2022-09-02T13:11:16.060Z,26.6
2022-09-02T13:12:22.802Z,26.9
2022-09-02T13:13:15.295Z,26.7
2022-09-02T13:14:15.244Z,26.4
2022-09-02T13:15:15.237Z,26.3
2022-09-02T13:16:16.977Z,26.3
2022-09-02T13:17:32.960Z,26.2
2022-09-02T13:18:15.294Z,26.4
2022-09-02T13:19:15.319Z,26.5
2022-09-02T13:20:15.241Z,26.5
2022-09-02T13:21:15.260Z,26.8
2022-09-02T13:22:15.370Z,26.8
2022-09-02T13:23:15.426Z,26.8
2022-09-02T13:24:15.421Z,26.9
2022-09-02T13:25:24.536Z,27
2022-09-02T13:26:27.550Z,26.9
2022-09-02T13:27:17.973Z,26.8
2022-09-02T13:28:15.867Z,26.4
2022-09-02T13:29:30.385Z,26.5
2022-09-02T13:30:16.718Z,26.4
2022-09-02T13:31:15.765Z,26.7
2022-09-02T13:32:15.914Z,26.8